Time;durP1;ratioP1;P1;durP2;ratioP2;P2;SDS_P1;SDS_P2;PMS_P1;PMS_P2;Temp;Humidity;BMP_temperature;BMP_pressure;BME280_temperature;BME280_humidity;BME280_pressure;Samples;Min_cycle;Max_cycle;Signal;HPM_P1;HPM_P2
2021/12/25 00:02:12;;;;;;;21.27;12.98;;;;;;;;;;5052369;28;20303;-65
2021/12/25 00:04:37;;;;;;;19.63;10.82;;;;;;;;;;5052310;28;20170;-66
2021/12/25 00:07:03;;;;;;;6.25;5.10;;;;;;;;;;5052338;28;20215;-67
2021/12/25 00:09:28;;;;;;;8.38;6.30;;;;;;;;;;5052285;28;20169;-67
2021/12/25 00:11:53;;;;;;;3.40;3.10;;;;;;;;;;5052500;28;20205;-67
2021/12/25 00:14:20;;;;;;;4.43;3.00;;;;;;;;;;5052185;28;20186;-66
2021/12/25 00:16:46;;;;;;;3.50;3.20;;;;;;;;;;5052427;28;20182;-66
2021/12/25 00:19:11;;;;;;;4.00;2.90;;;;;;;;;;5050377;28;20575;-66
2021/12/25 00:21:36;;;;;;;3.65;2.75;;;;;;;;;;5052147;28;20198;-66
2021/12/25 00:24:03;;;;;;;11.40;7.40;;;;;;;;;;5052629;28;20162;-66
2021/12/25 00:26:45;;;;;;;18.83;11.50;;;;;;;;;;5052332;28;20203;-66
2021/12/25 00:34:46;;;;;;;2.10;2.00;;;;;;;;;;5051627;28;20205;-66
2021/12/25 00:37:11;;;;;;;2.83;2.28;;;;;;;;;;5051919;28;20227;-67
2021/12/25 00:39:37;;;;;;;2.00;1.90;;;;;;;;;;5052346;28;20196;-67
2021/12/25 00:42:03;;;;;;;3.25;2.47;;;;;;;;;;5051748;28;20170;-66
2021/12/25 00:44:28;;;;;;;2.25;2.10;;;;;;;;;;5052127;28;20238;-67
2021/12/25 00:46:57;;;;;;;2.38;2.17;;;;;;;;;;5052336;28;20201;-67
2021/12/25 00:49:23;;;;;;;2.08;1.98;;;;;;;;;;5051708;28;20201;-67
2021/12/25 00:51:48;;;;;;;2.22;2.03;;;;;;;;;;5052329;28;20208;-67
2021/12/25 00:54:15;;;;;;;1.92;1.83;;;;;;;;;;5051909;28;20242;-67
2021/12/25 00:56:40;;;;;;;2.03;1.92;;;;;;;;;;5051669;28;20177;-68
2021/12/25 00:59:05;;;;;;;2.20;2.00;;;;;;;;;;5051623;28;20224;-67
2021/12/25 01:01:31;;;;;;;1.80;1.70;;;;;;;;;;5051685;28;20173;-66
2021/12/25 01:03:56;;;;;;;1.98;1.63;;;;;;;;;;5051944;28;20558;-67
2021/12/25 01:06:21;;;;;;;4.25;1.67;;;;;;;;;;5051846;28;20170;-66
2021/12/25 01:08:46;;;;;;;2.28;1.98;;;;;;;;;;5051879;28;20252;-67
2021/12/25 01:11:12;;;;;;;5.00;2.30;;;;;;;;;;5051580;28;20173;-66
2021/12/25 01:13:44;;;;;;;2.30;2.10;;;;;;;;;;5051571;28;20165;-66
2021/12/25 01:16:24;;;;;;;2.03;1.92;;;;;;;;;;5051520;28;20211;-66
2021/12/25 01:24:38;;;;;;;3.38;2.05;;;;;;;;;;5051759;28;20304;-66
2021/12/25 01:29:53;;;;;;;1.92;1.80;;;;;;;;;;5051450;28;20248;-67
2021/12/25 01:32:49;;;;;;;1.95;1.85;;;;;;;;;;5054676;28;20228;-67
2021/12/25 01:40:23;;;;;;;2.25;2.00;;;;;;;;;;5054939;28;20567;-66
2021/12/25 01:48:20;;;;;;;4.10;3.60;;;;;;;;;;5055214;28;20691;-66
2021/12/25 01:50:45;;;;;;;12.95;8.50;;;;;;;;;;5054844;28;20209;-66
2021/12/25 01:53:11;;;;;;;9.43;6.80;;;;;;;;;;5055077;28;20173;-66
2021/12/25 01:55:36;;;;;;;11.55;7.93;;;;;;;;;;5054802;28;20170;-67
2021/12/25 01:58:03;;;;;;;8.57;6.78;;;;;;;;;;5054966;28;20178;-67
2021/12/25 02:00:30;;;;;;;12.38;8.77;;;;;;;;;;5054631;28;20698;-66
2021/12/25 02:02:56;;;;;;;11.68;8.23;;;;;;;;;;5054826;28;20647;-67
2021/12/25 02:05:22;;;;;;;10.65;7.90;;;;;;;;;;5054764;28;20215;-66
2021/12/25 02:07:47;;;;;;;6.85;5.07;;;;;;;;;;5054485;28;20554;-66
2021/12/25 02:10:14;;;;;;;2.28;2.17;;;;;;;;;;5054474;28;20173;-67
2021/12/25 02:12:40;;;;;;;1.92;1.83;;;;;;;;;;5054739;28;20181;-66
2021/12/25 02:15:10;;;;;;;2.15;2.03;;;;;;;;;;5054879;28;20190;-66
2021/12/25 02:20:27;;;;;;;2.60;2.35;;;;;;;;;;5063199;28;20232;-66
2021/12/25 02:22:59;;;;;;;3.60;2.83;;;;;;;;;;5054270;28;20154;-67
2021/12/25 02:25:24;;;;;;;2.30;2.10;;;;;;;;;;5054482;28;20169;-66
2021/12/25 02:27:50;;;;;;;1.98;1.80;;;;;;;;;;5054186;28;20173;-66
2021/12/25 02:30:15;;;;;;;1.67;1.58;;;;;;;;;;5054055;28;20195;-67
2021/12/25 02:32:44;;;;;;;1.67;1.58;;;;;;;;;;5054355;28;20174;-67
2021/12/25 02:35:09;;;;;;;2.20;2.10;;;;;;;;;;5054015;28;20197;-67
2021/12/25 02:37:34;;;;;;;2.50;2.30;;;;;;;;;;5054243;28;20181;-66
2021/12/25 02:40:00;;;;;;;2.33;2.22;;;;;;;;;;5053840;28;20759;-66
2021/12/25 02:42:25;;;;;;;2.42;2.22;;;;;;;;;;5054068;28;20179;-66
2021/12/25 02:44:50;;;;;;;1.92;1.80;;;;;;;;;;5054110;28;20635;-66
2021/12/25 02:47:20;;;;;;;1.95;1.80;;;;;;;;;;5054000;28;20181;-66
2021/12/25 02:49:51;;;;;;;2.38;2.28;;;;;;;;;;5054007;28;20178;-67
2021/12/25 02:52:17;;;;;;;1.70;1.60;;;;;;;;;;5053718;28;20566;-66
2021/12/25 02:54:43;;;;;;;2.03;1.60;;;;;;;;;;5053886;28;20195;-67
2021/12/25 02:57:09;;;;;;;1.95;1.80;;;;;;;;;;5053535;28;20690;-66
2021/12/25 02:59:34;;;;;;;4.40;1.67;;;;;;;;;;5053453;28;20239;-66
2021/12/25 03:02:04;;;;;;;2.05;1.88;;;;;;;;;;5054035;28;20252;-67
2021/12/25 03:04:29;;;;;;;1.70;1.55;;;;;;;;;;5053927;28;20174;-66
2021/12/25 03:06:54;;;;;;;1.63;1.52;;;;;;;;;;5053585;28;20528;-67
2021/12/25 03:09:19;;;;;;;1.60;1.50;;;;;;;;;;5053373;28;20182;-66
2021/12/25 03:11:45;;;;;;;1.83;1.73;;;;;;;;;;5053361;28;20166;-66
2021/12/25 03:14:30;;;;;;;1.60;1.50;;;;;;;;;;5053182;28;20190;-66
2021/12/25 03:16:56;;;;;;;1.60;1.50;;;;;;;;;;5053555;28;20552;-67
2021/12/25 03:19:31;;;;;;;1.70;1.60;;;;;;;;;;5053362;28;20203;-67
2021/12/25 03:21:57;;;;;;;1.92;1.83;;;;;;;;;;5053738;28;20165;-67
2021/12/25 03:24:23;;;;;;;1.80;1.70;;;;;;;;;;5053324;28;20200;-67
2021/12/25 03:26:52;;;;;;;1.70;1.60;;;;;;;;;;5053017;28;20635;-67
2021/12/25 03:29:17;;;;;;;3.55;2.05;;;;;;;;;;5053220;28;20181;-67
2021/12/25 03:31:42;;;;;;;3.30;2.00;;;;;;;;;;5052886;28;20689;-67
2021/12/25 03:34:08;;;;;;;1.67;1.58;;;;;;;;;;5052057;28;20212;-67
2021/12/25 03:36:33;;;;;;;2.10;2.00;;;;;;;;;;5052881;28;20205;-68
2021/12/25 03:38:59;;;;;;;1.70;1.60;;;;;;;;;;5052759;28;20572;-67
2021/12/25 03:41:25;;;;;;;1.48;1.40;;;;;;;;;;5052712;28;20227;-67
2021/12/25 03:43:50;;;;;;;1.40;1.40;;;;;;;;;;5052949;28;20177;-66
2021/12/25 03:46:16;;;;;;;1.50;1.40;;;;;;;;;;5052930;28;20643;-66
2021/12/25 03:59:16;;;;;;;1.58;1.48;;;;;;;;;;5052701;28;20658;-66
2021/12/25 04:01:47;;;;;;;1.30;1.30;;;;;;;;;;5052675;28;20182;-66
2021/12/25 04:04:19;;;;;;;1.60;1.50;;;;;;;;;;5052596;28;20608;-66
2021/12/25 04:06:53;;;;;;;1.60;1.50;;;;;;;;;;5052594;28;20190;-65
2021/12/25 04:09:27;;;;;;;2.92;1.85;;;;;;;;;;5053094;28;20168;-66
2021/12/25 04:11:53;;;;;;;1.90;1.80;;;;;;;;;;5052553;28;20169;-65
2021/12/25 04:14:19;;;;;;;1.63;1.50;;;;;;;;;;5052418;28;20209;-66
2021/12/25 04:16:44;;;;;;;2.00;1.85;;;;;;;;;;5052171;28;20655;-66
2021/12/25 04:19:09;;;;;;;1.80;1.70;;;;;;;;;;5052295;28;20184;-66
2021/12/25 04:21:36;;;;;;;1.52;1.42;;;;;;;;;;5052110;28;20170;-66
2021/12/25 04:24:01;;;;;;;1.52;1.42;;;;;;;;;;5052144;28;20215;-66
2021/12/25 04:26:27;;;;;;;1.40;1.30;;;;;;;;;;5052358;28;20784;-66
2021/12/25 04:29:05;;;;;;;1.20;1.20;;;;;;;;;;5052085;28;20606;-66
2021/12/25 04:31:48;;;;;;;1.50;1.40;;;;;;;;;;5051930;28;20190;-66
2021/12/25 05:04:11;;;;;;;1.27;1.20;;;;;;;;;;5052303;28;20146;-66
2021/12/25 05:06:37;;;;;;;1.20;1.20;;;;;;;;;;5055584;28;20162;-67
2021/12/25 05:09:02;;;;;;;1.38;1.27;;;;;;;;;;5056157;28;20247;-66
2021/12/25 05:11:27;;;;;;;1.38;1.27;;;;;;;;;;5055656;28;20169;-67
2021/12/25 05:13:53;;;;;;;2.25;2.08;;;;;;;;;;5055518;28;20162;-66
2021/12/25 05:16:18;;;;;;;1.40;1.30;;;;;;;;;;5055504;28;20169;-67
2021/12/25 05:18:44;;;;;;;1.73;1.63;;;;;;;;;;5055364;28;20557;-67
2021/12/25 05:21:09;;;;;;;1.70;1.50;;;;;;;;;;5055331;28;20193;-68
2021/12/25 05:23:36;;;;;;;1.50;1.40;;;;;;;;;;5055638;28;20170;-66
2021/12/25 05:26:01;;;;;;;2.03;1.85;;;;;;;;;;5055286;28;20162;-66
2021/12/25 05:28:27;;;;;;;1.92;1.83;;;;;;;;;;5055296;28;20173;-67
2021/12/25 05:30:53;;;;;;;1.90;1.80;;;;;;;;;;5055464;28;20650;-67
2021/12/25 05:33:19;;;;;;;2.70;2.50;;;;;;;;;;5055087;28;20173;-68
2021/12/25 05:35:44;;;;;;;3.03;2.60;;;;;;;;;;5055413;28;20170;-67
2021/12/25 05:38:14;;;;;;;2.78;2.58;;;;;;;;;;5055096;28;20556;-67
2021/12/25 05:40:40;;;;;;;2.58;2.30;;;;;;;;;;5055474;28;20319;-66
2021/12/25 05:43:06;;;;;;;2.25;2.08;;;;;;;;;;5055227;28;20209;-67
2021/12/25 05:45:32;;;;;;;1.88;1.77;;;;;;;;;;5055247;28;20189;-65
2021/12/25 05:47:57;;;;;;;1.40;1.30;;;;;;;;;;5054969;28;20173;-66
2021/12/25 05:50:22;;;;;;;1.58;1.48;;;;;;;;;;5055967;28;20542;-66
2021/12/25 05:52:48;;;;;;;1.58;1.48;;;;;;;;;;5054856;28;20169;-66
2021/12/25 05:55:13;;;;;;;2.28;2.08;;;;;;;;;;5054763;28;20205;-66
2021/12/25 05:57:38;;;;;;;1.90;1.77;;;;;;;;;;5055016;28;20181;-67
2021/12/25 06:00:05;;;;;;;1.58;1.48;;;;;;;;;;5054909;28;20606;-67
2021/12/25 06:02:31;;;;;;;1.85;1.70;;;;;;;;;;5054412;28;20201;-68
2021/12/25 06:04:56;;;;;;;1.83;1.60;;;;;;;;;;5054641;28;20185;-65
2021/12/25 06:07:21;;;;;;;1.80;1.70;;;;;;;;;;5054500;28;20180;-66
2021/12/25 06:09:46;;;;;;;2.15;2.05;;;;;;;;;;5054504;28;20174;-66
2021/12/25 06:12:14;;;;;;;2.20;2.10;;;;;;;;;;5054417;28;20179;-66
2021/12/25 06:14:39;;;;;;;1.85;1.75;;;;;;;;;;5054642;28;20228;-67
2021/12/25 06:17:05;;;;;;;1.67;1.50;;;;;;;;;;5053908;28;20181;-66
2021/12/25 06:19:30;;;;;;;1.90;1.80;;;;;;;;;;5054359;28;20197;-66
2021/12/25 06:21:55;;;;;;;1.88;1.45;;;;;;;;;;5054272;28;20162;-67
2021/12/25 06:24:22;;;;;;;1.30;1.30;;;;;;;;;;5054292;28;20559;-67
2021/12/25 06:26:47;;;;;;;1.67;1.58;;;;;;;;;;5054181;28;20181;-69
2021/12/25 06:29:19;;;;;;;1.60;1.50;;;;;;;;;;5054184;28;20170;-68
2021/12/25 06:31:44;;;;;;;2.15;1.95;;;;;;;;;;5054039;28;20150;-67
2021/12/25 06:34:10;;;;;;;1.80;1.70;;;;;;;;;;5053832;28;20236;-68
2021/12/25 06:36:35;;;;;;;4.30;3.20;;;;;;;;;;5054000;28;20181;-68
2021/12/25 06:39:00;;;;;;;2.55;2.35;;;;;;;;;;5054487;28;20202;-68
2021/12/25 06:41:28;;;;;;;2.15;1.95;;;;;;;;;;5054114;28;20206;-67
2021/12/25 06:43:53;;;;;;;2.03;1.80;;;;;;;;;;5054101;28;20186;-67
2021/12/25 06:46:18;;;;;;;2.92;2.58;;;;;;;;;;5054083;28;20554;-67
2021/12/25 06:48:44;;;;;;;3.50;3.20;;;;;;;;;;5053785;28;20201;-67
2021/12/25 06:51:09;;;;;;;33.95;21.27;;;;;;;;;;5053735;28;20176;-68
2021/12/25 06:53:34;;;;;;;44.15;26.75;;;;;;;;;;5053626;28;20178;-67
2021/12/25 06:55:59;;;;;;;48.33;29.88;;;;;;;;;;5053652;28;20174;-67
2021/12/25 06:58:25;;;;;;;53.47;31.15;;;;;;;;;;5053843;28;20181;-67
2021/12/25 07:00:50;;;;;;;60.67;36.40;;;;;;;;;;5053756;28;20304;-67
2021/12/25 07:03:16;;;;;;;73.30;41.78;;;;;;;;;;5053496;28;20594;-67
2021/12/25 07:05:41;;;;;;;90.78;51.53;;;;;;;;;;5053709;28;20170;-67
2021/12/25 07:08:07;;;;;;;90.28;51.45;;;;;;;;;;5053355;28;20253;-67
2021/12/25 07:10:32;;;;;;;59.88;36.90;;;;;;;;;;5053593;28;20181;-66
2021/12/25 07:12:57;;;;;;;57.03;33.78;;;;;;;;;;5053329;28;20166;-67
2021/12/25 07:15:23;;;;;;;44.33;26.63;;;;;;;;;;5053392;28;20198;-67
2021/12/25 07:17:48;;;;;;;118.53;58.40;;;;;;;;;;5053489;28;20267;-66
2021/12/25 07:20:14;;;;;;;79.50;44.78;;;;;;;;;;5053032;28;20201;-66
2021/12/25 07:22:39;;;;;;;46.22;26.05;;;;;;;;;;5053118;28;20202;-67
2021/12/25 07:25:05;;;;;;;41.15;25.58;;;;;;;;;;5053330;28;20180;-67
2021/12/25 07:27:31;;;;;;;60.83;36.13;;;;;;;;;;5053019;28;20249;-67
2021/12/25 07:29:56;;;;;;;60.60;37.40;;;;;;;;;;5050724;28;20605;-67
2021/12/25 07:32:21;;;;;;;63.22;41.28;;;;;;;;;;5052848;28;20211;-66
2021/12/25 07:34:47;;;;;;;10.93;9.15;;;;;;;;;;5052767;28;20189;-66
2021/12/25 07:37:15;;;;;;;7.70;6.75;;;;;;;;;;5053139;28;20174;-67
2021/12/25 07:39:41;;;;;;;5.55;4.50;;;;;;;;;;5053210;28;20608;-66
2021/12/25 07:42:07;;;;;;;34.03;21.00;;;;;;;;;;5052746;28;20255;-66
2021/12/25 07:44:32;;;;;;;99.18;55.60;;;;;;;;;;5052690;28;20308;-66
2021/12/25 07:46:58;;;;;;;104.45;59.05;;;;;;;;;;5052672;28;20173;-67
2021/12/25 07:49:24;;;;;;;62.40;40.80;;;;;;;;;;5052845;28;20185;-68
2021/12/25 07:51:49;;;;;;;79.72;47.05;;;;;;;;;;5052541;28;20173;-67
2021/12/25 07:54:14;;;;;;;94.20;51.05;;;;;;;;;;5052507;28;20169;-66
2021/12/25 07:56:40;;;;;;;87.97;49.67;;;;;;;;;;5052518;28;20158;-67
2021/12/25 07:59:06;;;;;;;87.32;47.45;;;;;;;;;;5052961;28;20242;-67
2021/12/25 08:01:34;;;;;;;10.40;4.57;;;;;;;;;;5052294;28;20744;-67
2021/12/25 08:04:00;;;;;;;4.78;3.33;;;;;;;;;;5052635;28;20248;-67
2021/12/25 08:06:25;;;;;;;8.73;4.60;;;;;;;;;;5052521;28;20198;-66
2021/12/25 08:08:54;;;;;;;12.52;5.90;;;;;;;;;;5052299;28;20173;-66
2021/12/25 08:11:20;;;;;;;50.60;31.83;;;;;;;;;;5052151;28;20186;-66
2021/12/25 08:13:45;;;;;;;62.97;38.70;;;;;;;;;;5052359;28;20165;-66
2021/12/25 08:16:10;;;;;;;67.75;40.92;;;;;;;;;;5050927;28;20173;-67
2021/12/25 08:18:36;;;;;;;73.35;42.85;;;;;;;;;;5052075;28;20166;-67
2021/12/25 08:21:04;;;;;;;59.25;34.80;;;;;;;;;;5052282;28;20250;-67
2021/12/25 08:23:29;;;;;;;58.88;35.30;;;;;;;;;;5053077;28;20174;-65
2021/12/25 08:25:55;;;;;;;60.53;37.72;;;;;;;;;;5052283;28;20166;-66
2021/12/25 08:28:20;;;;;;;56.65;35.22;;;;;;;;;;5051916;28;20176;-67
2021/12/25 08:30:45;;;;;;;50.83;33.63;;;;;;;;;;5051835;28;20643;-67
2021/12/25 08:33:10;;;;;;;60.83;36.88;;;;;;;;;;5051906;28;20192;-67
2021/12/25 08:35:36;;;;;;;68.10;39.03;;;;;;;;;;5052532;28;20722;-67
2021/12/25 08:38:01;;;;;;;73.43;44.10;;;;;;;;;;5052139;28;20276;-67
2021/12/25 08:40:27;;;;;;;74.55;45.65;;;;;;;;;;5051386;28;20200;-66
2021/12/25 08:42:58;;;;;;;22.63;13.65;;;;;;;;;;5052081;28;20168;-67
2021/12/25 08:45:44;;;;;;;15.00;10.13;;;;;;;;;;5051795;28;20158;-67
2021/12/25 08:48:14;;;;;;;7.53;5.25;;;;;;;;;;5052077;28;20239;-67
2021/12/25 08:50:40;;;;;;;48.63;29.10;;;;;;;;;;5051767;28;20660;-67
2021/12/25 08:53:06;;;;;;;95.88;53.17;;;;;;;;;;5052024;28;20173;-67
2021/12/25 08:55:31;;;;;;;105.93;58.45;;;;;;;;;;5051670;28;20170;-67
2021/12/25 08:57:56;;;;;;;98.75;58.78;;;;;;;;;;5051729;28;20541;-67
2021/12/25 09:00:21;;;;;;;97.88;55.50;;;;;;;;;;5051569;28;20727;-67
2021/12/25 09:02:47;;;;;;;113.15;63.63;;;;;;;;;;5052173;28;20165;-67
2021/12/25 09:05:12;;;;;;;120.05;71.22;;;;;;;;;;5051890;28;20239;-67
2021/12/25 09:07:38;;;;;;;126.20;70.00;;;;;;;;;;5051806;28;20185;-67
2021/12/25 09:10:04;;;;;;;158.32;79.25;;;;;;;;;;5051555;28;20232;-67
2021/12/25 09:12:29;;;;;;;129.82;72.70;;;;;;;;;;5052104;28;20186;-67
2021/12/25 09:14:54;;;;;;;133.52;75.80;;;;;;;;;;5051731;28;20575;-67
2021/12/25 09:17:19;;;;;;;138.80;72.00;;;;;;;;;;5051794;28;20185;-68
2021/12/25 09:19:45;;;;;;;156.90;81.28;;;;;;;;;;5051423;28;20201;-67
2021/12/25 09:22:11;;;;;;;143.70;73.43;;;;;;;;;;5051979;28;20249;-69
2021/12/25 09:24:37;;;;;;;99.70;60.28;;;;;;;;;;5051417;28;20666;-68
2021/12/25 09:27:03;;;;;;;116.10;62.75;;;;;;;;;;5051680;28;20170;-67
2021/12/25 09:29:28;;;;;;;113.60;62.90;;;;;;;;;;5051656;28;20170;-67
2021/12/25 09:31:54;;;;;;;111.88;60.35;;;;;;;;;;5051383;28;20165;-68
2021/12/25 09:34:19;;;;;;;97.35;53.30;;;;;;;;;;5051252;28;20190;-67
2021/12/25 09:36:44;;;;;;;86.35;50.83;;;;;;;;;;5051241;28;20169;-68
2021/12/25 09:39:10;;;;;;;79.55;49.80;;;;;;;;;;5051581;28;20619;-66
2021/12/25 09:41:35;;;;;;;95.03;52.70;;;;;;;;;;5051260;28;20197;-67
2021/12/25 09:44:02;;;;;;;85.60;52.90;;;;;;;;;;5051136;28;20166;-67
2021/12/25 09:46:27;;;;;;;81.00;49.13;;;;;;;;;;5051682;28;20169;-67
2021/12/25 09:48:54;;;;;;;83.15;47.35;;;;;;;;;;5051436;28;20546;-67
2021/12/25 09:51:19;;;;;;;78.72;48.17;;;;;;;;;;5051160;28;20174;-67
2021/12/25 09:54:06;;;;;;;53.20;34.47;;;;;;;;;;5054664;28;20176;-68
2021/12/25 09:56:32;;;;;;;63.55;38.25;;;;;;;;;;5054699;28;20176;-68
2021/12/25 09:58:57;;;;;;;71.13;42.10;;;;;;;;;;5054731;28;20162;-67
2021/12/25 10:01:32;;;;;;;69.35;40.67;;;;;;;;;;5054456;28;20255;-66
2021/12/25 10:03:57;;;;;;;73.03;41.15;;;;;;;;;;5054671;28;20184;-67
2021/12/25 10:06:31;;;;;;;71.20;41.83;;;;;;;;;;5054825;28;20172;-67
2021/12/25 10:08:56;;;;;;;79.75;46.47;;;;;;;;;;5054442;28;20173;-66
2021/12/25 10:11:22;;;;;;;66.55;38.10;;;;;;;;;;5054678;28;20181;-66
2021/12/25 10:13:47;;;;;;;55.78;33.00;;;;;;;;;;5054284;28;20209;-66
2021/12/25 10:16:26;;;;;;;47.60;29.92;;;;;;;;;;5054372;28;20173;-67
2021/12/25 10:18:55;;;;;;;43.05;27.40;;;;;;;;;;5054290;28;20204;-67
2021/12/25 10:21:23;;;;;;;50.20;31.45;;;;;;;;;;5054456;28;20198;-67
2021/12/25 10:24:07;;;;;;;51.13;30.00;;;;;;;;;;5054182;28;20249;-67
2021/12/25 10:26:33;;;;;;;52.78;29.50;;;;;;;;;;5054990;28;20260;-67
2021/12/25 10:28:59;;;;;;;51.88;28.13;;;;;;;;;;5054421;28;20257;-67
2021/12/25 10:31:32;;;;;;;40.28;25.17;;;;;;;;;;5054200;28;20256;-67
2021/12/25 10:33:57;;;;;;;42.10;23.92;;;;;;;;;;5054097;28;20196;-68
2021/12/25 10:36:22;;;;;;;47.35;26.13;;;;;;;;;;5053962;28;20559;-67
2021/12/25 10:39:02;;;;;;;39.53;22.67;;;;;;;;;;5053979;28;20165;-66
2021/12/25 10:41:27;;;;;;;27.17;17.35;;;;;;;;;;5053211;28;20181;-66
2021/12/25 10:44:09;;;;;;;30.27;17.13;;;;;;;;;;5053849;28;20169;-67
2021/12/25 10:46:46;;;;;;;23.85;14.95;;;;;;;;;;5054140;28;20231;-67
2021/12/25 10:49:12;;;;;;;20.75;13.93;;;;;;;;;;5054075;28;20243;-67
2021/12/25 10:51:37;;;;;;;34.45;18.40;;;;;;;;;;5053996;28;20566;-66
2021/12/25 10:54:03;;;;;;;18.95;12.63;;;;;;;;;;5053676;28;20647;-68
2021/12/25 10:56:36;;;;;;;15.73;10.15;;;;;;;;;;5054132;28;20605;-67
2021/12/25 10:59:02;;;;;;;25.35;14.20;;;;;;;;;;5053613;28;20651;-68
2021/12/25 11:01:27;;;;;;;33.80;18.52;;;;;;;;;;5053761;28;20200;-67
2021/12/25 11:03:53;;;;;;;41.00;26.42;;;;;;;;;;5053590;28;20647;-67
2021/12/25 11:06:18;;;;;;;46.58;29.67;;;;;;;;;;5053746;28;20165;-68
2021/12/25 11:08:44;;;;;;;58.63;36.20;;;;;;;;;;5053626;28;20170;-68
2021/12/25 11:11:14;;;;;;;50.58;30.42;;;;;;;;;;5053675;28;20276;-68
2021/12/25 11:13:39;;;;;;;60.75;38.53;;;;;;;;;;5053643;28;20255;-66
2021/12/25 11:16:31;;;;;;;55.88;39.95;;;;;;;;;;5053496;28;20221;-67
2021/12/25 11:21:39;;;;;;;54.58;31.80;;;;;;;;;;5053194;28;20189;-67
2021/12/25 11:24:10;;;;;;;58.90;34.40;;;;;;;;;;5053132;28;20162;-67
2021/12/25 11:26:36;;;;;;;77.63;44.70;;;;;;;;;;5053017;28;20165;-67
2021/12/25 11:29:02;;;;;;;51.28;32.17;;;;;;;;;;5052904;28;20560;-67
2021/12/25 11:31:30;;;;;;;47.08;27.92;;;;;;;;;;5052930;28;20170;-67
2021/12/25 11:33:55;;;;;;;39.20;23.92;;;;;;;;;;5052762;28;20193;-67
2021/12/25 11:36:20;;;;;;;40.30;25.58;;;;;;;;;;5052930;28;20158;-67
2021/12/25 11:38:46;;;;;;;38.42;24.33;;;;;;;;;;5053115;28;20174;-66
2021/12/25 11:41:12;;;;;;;43.22;25.38;;;;;;;;;;5052719;28;20277;-67
2021/12/25 11:43:40;;;;;;;48.00;28.02;;;;;;;;;;5052998;28;20177;-67
2021/12/25 11:46:07;;;;;;;33.17;21.60;;;;;;;;;;5052699;28;20166;-67
2021/12/25 11:48:33;;;;;;;31.80;20.40;;;;;;;;;;5053542;28;20174;-67
2021/12/25 11:50:58;;;;;;;24.38;17.58;;;;;;;;;;5052888;28;20280;-66
2021/12/25 11:53:42;;;;;;;34.13;19.77;;;;;;;;;;5052915;28;20239;-66
2021/12/25 11:58:44;;;;;;;20.15;14.27;;;;;;;;;;5052477;28;20166;-67
2021/12/25 12:01:18;;;;;;;22.17;14.68;;;;;;;;;;5052677;28;20326;-68
2021/12/25 12:03:46;;;;;;;20.40;14.52;;;;;;;;;;5052356;28;20172;-66
2021/12/25 12:06:15;;;;;;;19.67;14.93;;;;;;;;;;5052575;28;20176;-66
2021/12/25 12:08:52;;;;;;;22.45;15.52;;;;;;;;;;5052333;28;20177;-66
2021/12/25 12:11:21;;;;;;;19.23;14.52;;;;;;;;;;5052333;28;20260;-66
2021/12/25 12:13:46;;;;;;;18.00;13.70;;;;;;;;;;5052748;28;20253;-67
2021/12/25 12:16:12;;;;;;;20.80;14.45;;;;;;;;;;5052183;28;20193;-67
2021/12/25 12:18:38;;;;;;;20.70;14.93;;;;;;;;;;5052780;28;20165;-67
2021/12/25 12:21:32;;;;;;;24.30;16.65;;;;;;;;;;5052301;28;20198;-67
2021/12/25 12:26:44;;;;;;;21.33;15.90;;;;;;;;;;5052152;28;20211;-67
2021/12/25 12:29:10;;;;;;;23.13;15.43;;;;;;;;;;5052075;28;20632;-67
2021/12/25 12:31:41;;;;;;;22.05;14.02;;;;;;;;;;5052003;28;20172;-66
2021/12/25 12:34:25;;;;;;;23.77;15.82;;;;;;;;;;5052033;28;20280;-67
2021/12/25 12:36:50;;;;;;;23.75;14.57;;;;;;;;;;5052265;28;20174;-68
2021/12/25 12:39:18;;;;;;;22.38;14.90;;;;;;;;;;5052193;28;20227;-67
2021/12/25 12:41:51;;;;;;;18.98;13.82;;;;;;;;;;5051836;28;20186;-67
2021/12/25 12:44:24;;;;;;;29.02;17.50;;;;;;;;;;5052071;28;20197;-67
2021/12/25 12:46:53;;;;;;;27.33;16.58;;;;;;;;;;5052064;28;20233;-67
2021/12/25 12:49:41;;;;;;;20.15;14.70;;;;;;;;;;5051779;28;20258;-67
2021/12/25 12:52:09;;;;;;;20.95;14.27;;;;;;;;;;5051355;28;20185;-67
2021/12/25 12:54:38;;;;;;;26.23;16.90;;;;;;;;;;5052040;28;20248;-67
2021/12/25 12:57:04;;;;;;;30.70;18.55;;;;;;;;;;5051691;28;20170;-66
2021/12/25 12:59:42;;;;;;;33.95;20.27;;;;;;;;;;5051665;28;20177;-67
2021/12/25 13:02:08;;;;;;;30.23;19.48;;;;;;;;;;5052002;28;20170;-66
2021/12/25 13:04:43;;;;;;;30.90;18.60;;;;;;;;;;5052238;28;20177;-67
2021/12/25 13:07:09;;;;;;;25.75;16.92;;;;;;;;;;5051839;28;20185;-67
2021/12/25 13:09:40;;;;;;;28.88;16.45;;;;;;;;;;5051610;28;20166;-67
2021/12/25 13:12:19;;;;;;;25.38;17.08;;;;;;;;;;5051882;28;20150;-67
2021/12/25 13:14:44;;;;;;;26.15;16.88;;;;;;;;;;5051732;28;20201;-68
2021/12/25 13:17:09;;;;;;;23.25;15.80;;;;;;;;;;5051812;28;20170;-68
2021/12/25 13:19:44;;;;;;;23.40;15.32;;;;;;;;;;5051418;28;20166;-68
2021/12/25 13:22:11;;;;;;;26.23;17.15;;;;;;;;;;5051568;28;20154;-67
2021/12/25 13:24:37;;;;;;;27.63;17.85;;;;;;;;;;5051767;28;20162;-67
2021/12/25 13:27:02;;;;;;;31.27;19.02;;;;;;;;;;5054349;28;20264;-68
2021/12/25 13:29:27;;;;;;;23.85;16.83;;;;;;;;;;5055646;28;20237;-68
2021/12/25 13:31:53;;;;;;;28.75;18.80;;;;;;;;;;5055522;28;20228;-67
2021/12/25 13:34:20;;;;;;;29.30;19.23;;;;;;;;;;5055194;28;20750;-67
2021/12/25 13:36:48;;;;;;;32.20;19.45;;;;;;;;;;5055399;28;20182;-67
2021/12/25 13:39:16;;;;;;;26.63;17.75;;;;;;;;;;5055386;28;20196;-67
2021/12/25 13:41:42;;;;;;;30.88;19.02;;;;;;;;;;5055270;28;20308;-67
2021/12/25 13:44:19;;;;;;;27.45;18.63;;;;;;;;;;5054980;28;20169;-67
2021/12/25 13:46:57;;;;;;;24.85;16.45;;;;;;;;;;5055603;28;20169;-66
2021/12/25 13:49:28;;;;;;;24.58;17.33;;;;;;;;;;5055230;28;20165;-66
2021/12/25 13:51:54;;;;;;;25.63;16.80;;;;;;;;;;5054925;28;20169;-66
2021/12/25 13:54:20;;;;;;;22.45;16.40;;;;;;;;;;5055170;28;20165;-67
2021/12/25 13:56:50;;;;;;;23.02;17.48;;;;;;;;;;5055062;28;20238;-66
2021/12/25 13:59:15;;;;;;;23.20;15.57;;;;;;;;;;5054818;28;20169;-67
2021/12/25 14:01:41;;;;;;;23.23;15.43;;;;;;;;;;5054918;28;20197;-66
2021/12/25 14:04:07;;;;;;;23.67;15.77;;;;;;;;;;5055200;28;20162;-67
2021/12/25 14:06:33;;;;;;;32.28;20.85;;;;;;;;;;5054587;28;20162;-66
2021/12/25 14:08:58;;;;;;;33.30;20.20;;;;;;;;;;5054569;28;20230;-66
2021/12/25 14:11:23;;;;;;;21.23;15.93;;;;;;;;;;5054519;28;20177;-67
2021/12/25 14:13:49;;;;;;;22.52;14.80;;;;;;;;;;5054652;28;20174;-67
2021/12/25 14:16:14;;;;;;;28.10;19.08;;;;;;;;;;5054637;28;20173;-66
2021/12/25 14:18:40;;;;;;;24.45;16.83;;;;;;;;;;5054384;28;20174;-67
2021/12/25 14:21:13;;;;;;;32.95;19.60;;;;;;;;;;5054264;28;20285;-66
2021/12/25 14:23:39;;;;;;;26.23;18.85;;;;;;;;;;5054574;28;20221;-66
2021/12/25 14:26:04;;;;;;;28.95;18.75;;;;;;;;;;5054580;28;20651;-66
2021/12/25 14:28:34;;;;;;;30.02;17.05;;;;;;;;;;5052993;28;20176;-66
2021/12/25 14:31:04;;;;;;;25.98;17.02;;;;;;;;;;5054438;28;20165;-66
2021/12/25 14:33:31;;;;;;;25.90;17.13;;;;;;;;;;5054175;28;20314;-67
2021/12/25 14:35:56;;;;;;;21.65;14.52;;;;;;;;;;5054349;28;20165;-67
2021/12/25 14:38:22;;;;;;;21.05;14.02;;;;;;;;;;5053418;28;20661;-67
2021/12/25 14:40:49;;;;;;;17.27;11.75;;;;;;;;;;5054216;28;20318;-66
2021/12/25 14:43:17;;;;;;;15.10;10.13;;;;;;;;;;5054160;28;20244;-66
2021/12/25 14:45:53;;;;;;;6.30;5.22;;;;;;;;;;5053909;28;20166;-67
2021/12/25 14:48:29;;;;;;;3.70;3.40;;;;;;;;;;5054492;28;20177;-67
2021/12/25 14:50:59;;;;;;;5.13;4.63;;;;;;;;;;5053876;28;20169;-68
2021/12/25 14:53:25;;;;;;;6.10;4.40;;;;;;;;;;5053846;28;20165;-68
2021/12/25 14:55:52;;;;;;;3.22;3.03;;;;;;;;;;5053714;28;20166;-67
2021/12/25 14:58:26;;;;;;;2.72;2.53;;;;;;;;;;5053684;28;20181;-67
2021/12/25 15:01:22;;;;;;;3.95;3.50;;;;;;;;;;5054126;28;20190;-66
2021/12/25 15:04:06;;;;;;;2.67;2.47;;;;;;;;;;5053391;28;20208;-66
2021/12/25 15:06:31;;;;;;;4.32;3.10;;;;;;;;;;5053450;28;20651;-67
2021/12/25 15:09:15;;;;;;;4.18;3.13;;;;;;;;;;5053395;28;20170;-67
2021/12/25 15:11:44;;;;;;;3.70;3.00;;;;;;;;;;5053643;28;20178;-67
2021/12/25 15:14:11;;;;;;;4.47;2.70;;;;;;;;;;5053295;28;20193;-67
2021/12/25 15:16:39;;;;;;;3.72;3.42;;;;;;;;;;5053349;28;20243;-66
2021/12/25 15:19:05;;;;;;;3.83;2.95;;;;;;;;;;5053252;28;20170;-68
2021/12/25 15:21:30;;;;;;;3.33;3.03;;;;;;;;;;5053380;28;20714;-67
2021/12/25 15:24:10;;;;;;;4.82;3.67;;;;;;;;;;5051928;28;20184;-67
2021/12/25 15:26:55;;;;;;;4.45;3.80;;;;;;;;;;5051872;28;20165;-67
2021/12/25 15:29:29;;;;;;;12.52;4.05;;;;;;;;;;5053391;28;20185;-66
2021/12/25 15:31:58;;;;;;;8.05;4.85;;;;;;;;;;5053300;28;20165;-68
2021/12/25 15:34:24;;;;;;;7.25;3.95;;;;;;;;;;5052847;28;20766;-67
2021/12/25 15:36:49;;;;;;;5.97;4.07;;;;;;;;;;5052911;28;20209;-66
2021/12/25 15:39:16;;;;;;;6.28;4.28;;;;;;;;;;5052889;28;20204;-67
2021/12/25 15:41:42;;;;;;;6.30;4.80;;;;;;;;;;5052770;28;20193;-66
2021/12/25 15:44:08;;;;;;;6.45;5.10;;;;;;;;;;5052749;28;20165;-67
2021/12/25 15:46:33;;;;;;;4.32;3.72;;;;;;;;;;5053036;28;20514;-67
2021/12/25 15:48:58;;;;;;;4.60;3.30;;;;;;;;;;5052263;28;20238;-68